Time;durP1;ratioP1;P1;durP2;ratioP2;P2;SDS_P1;SDS_P2;PMS_P1;PMS_P2;Temp;Humidity;BMP_temperature;BMP_pressure;BME280_temperature;BME280_humidity;BME280_pressure;Samples;Min_cycle;Max_cycle;Signal;HPM_P1;HPM_P2
2023/11/18 00:01:05;;;;;;;0.95;0.40;;;;;;;4.41;87.57;93230.88;4888575;29;20045;-77
2023/11/18 00:03:30;;;;;;;1.30;0.60;;;;;;;4.46;87.31;93216.03;4888455;29;20036;-77
2023/11/18 00:05:56;;;;;;;1.15;0.60;;;;;;;4.46;86.95;93224.75;4888599;29;20029;-77
2023/11/18 00:08:21;;;;;;;0.70;0.43;;;;;;;4.35;86.29;93228.63;4888646;29;20037;-77
2023/11/18 00:10:47;;;;;;;0.75;0.50;;;;;;;4.28;86.20;93220.31;4887256;29;20060;-78
2023/11/18 00:13:13;;;;;;;0.65;0.47;;;;;;;4.22;86.94;93217.72;4888506;29;20021;-78
2023/11/18 00:15:38;;;;;;;0.25;0.25;;;;;;;4.21;87.56;93231.19;4888496;29;20327;-78
2023/11/18 00:18:03;;;;;;;0.63;0.40;;;;;;;4.19;86.18;93233.34;4888332;29;20199;-78
2023/11/18 00:20:30;;;;;;;0.30;0.20;;;;;;;4.14;85.46;93251.91;4888428;29;20021;-78
2023/11/18 00:22:56;;;;;;;0.30;0.30;;;;;;;4.19;86.13;93254.44;4890423;29;20029;-78
2023/11/18 00:25:22;;;;;;;0.50;0.40;;;;;;;4.17;84.58;93240.75;4892027;29;20100;-78
2023/11/18 00:27:47;;;;;;;0.50;0.30;;;;;;;4.20;83.75;93225.16;4892036;29;20096;-78
2023/11/18 00:30:13;;;;;;;0.65;0.40;;;;;;;4.20;84.60;93222.50;4892456;29;20025;-78
2023/11/18 00:32:39;;;;;;;0.22;0.22;;;;;;;4.21;84.14;93210.91;4892128;29;20025;-78
2023/11/18 00:35:05;;;;;;;0.60;0.32;;;;;;;4.21;82.53;93218.00;4891909;29;20055;-78
2023/11/18 00:37:31;;;;;;;0.73;0.40;;;;;;;4.19;83.10;93220.16;4891797;29;20040;-78
2023/11/18 00:39:57;;;;;;;0.57;0.40;;;;;;;4.18;83.97;93205.41;4890798;29;20069;-78
2023/11/18 00:42:22;;;;;;;0.60;0.50;;;;;;;4.17;84.33;93211.75;4891723;29;20269;-77
2023/11/18 00:44:48;;;;;;;0.70;0.40;;;;;;;4.16;84.76;93231.31;4891963;29;20029;-78
2023/11/18 00:47:13;;;;;;;0.95;0.60;;;;;;;4.11;85.23;93226.91;4892148;29;20031;-78
2023/11/18 00:49:39;;;;;;;0.60;0.50;;;;;;;4.05;85.04;93227.25;4891821;29;20260;-78
2023/11/18 00:52:05;;;;;;;0.43;0.40;;;;;;;4.04;85.75;93229.09;4891691;29;20096;-78
2023/11/18 00:54:31;;;;;;;0.52;0.52;;;;;;;3.97;85.26;93226.06;4891586;29;20362;-78
2023/11/18 00:56:57;;;;;;;0.93;0.55;;;;;;;3.94;85.95;93250.34;4890426;29;20032;-78
2023/11/18 00:59:22;;;;;;;0.50;0.50;;;;;;;3.95;87.09;93215.78;4891486;29;20055;-78
2023/11/18 01:01:48;;;;;;;0.85;0.47;;;;;;;3.91;87.26;93214.78;4891609;29;20025;-78
2023/11/18 01:04:14;;;;;;;0.85;0.70;;;;;;;3.87;87.05;93231.44;4891681;29;20227;-78
2023/11/18 01:06:39;;;;;;;0.80;0.50;;;;;;;3.85;86.26;93236.22;4891500;29;20062;-78
2023/11/18 01:09:07;;;;;;;0.63;0.50;;;;;;;3.76;86.01;93228.19;4891403;29;20025;-78
2023/11/18 01:11:32;;;;;;;0.98;0.63;;;;;;;3.82;86.89;93227.81;4891272;29;20255;-78
2023/11/18 01:13:58;;;;;;;0.85;0.38;;;;;;;3.82;86.01;93235.72;4891318;29;20037;-78
2023/11/18 01:16:23;;;;;;;0.50;0.50;;;;;;;3.73;86.33;93237.47;4891403;29;20024;-77
2023/11/18 01:18:49;;;;;;;0.40;0.40;;;;;;;3.80;87.81;93243.13;4891354;29;20025;-78
2023/11/18 01:21:17;;;;;;;0.85;0.65;;;;;;;3.79;88.36;93257.41;4890185;29;20342;-77
2023/11/18 01:23:42;;;;;;;1.27;0.90;;;;;;;3.77;87.46;93249.00;4890191;29;20028;-77
2023/11/18 01:26:08;;;;;;;2.38;0.60;;;;;;;3.74;88.02;93249.56;4890998;29;20069;-78
2023/11/18 01:28:38;;;;;;;1.27;0.70;;;;;;;3.61;87.02;93256.31;4891109;29;20097;-77
2023/11/18 01:31:04;;;;;;;1.80;0.85;;;;;;;3.60;87.97;93240.78;4890903;29;20025;-77
2023/11/18 01:33:32;;;;;;;1.67;0.85;;;;;;;3.57;88.27;93255.31;4890053;29;20036;-77
2023/11/18 01:35:58;;;;;;;1.38;0.75;;;;;;;3.54;88.03;93261.19;4889968;29;20259;-77
2023/11/18 01:38:24;;;;;;;2.40;0.85;;;;;;;3.54;88.63;93268.28;4890904;29;20105;-77
2023/11/18 01:40:53;;;;;;;1.52;0.82;;;;;;;3.48;87.67;93266.78;4890525;29;20219;-77
2023/11/18 01:43:18;;;;;;;1.98;1.10;;;;;;;3.48;88.34;93251.78;4890818;29;20056;-77
2023/11/18 01:45:44;;;;;;;1.05;0.70;;;;;;;3.45;86.67;93249.69;4890889;29;20086;-77
2023/11/18 01:48:10;;;;;;;1.88;1.08;;;;;;;3.44;87.37;93247.31;4890805;29;20029;-77
2023/11/18 01:50:38;;;;;;;1.67;0.90;;;;;;;3.47;86.87;93249.41;4890658;29;20033;-77
2023/11/18 01:53:05;;;;;;;1.17;0.77;;;;;;;3.47;85.72;93246.78;4890574;29;20056;-77
2023/11/18 01:55:31;;;;;;;1.10;0.70;;;;;;;3.40;84.00;93241.84;4890505;29;20051;-78
2023/11/18 01:57:57;;;;;;;1.17;0.82;;;;;;;3.39;85.58;93248.19;4889340;29;20347;-78
2023/11/18 02:00:24;;;;;;;1.52;0.90;;;;;;;3.35;85.87;93253.22;4890615;29;20029;-78
2023/11/18 02:02:49;;;;;;;1.08;0.60;;;;;;;3.35;85.96;93271.66;4890463;29;20025;-78
2023/11/18 02:05:17;;;;;;;1.40;0.75;;;;;;;3.34;85.65;93267.47;4890502;29;20069;-77
2023/11/18 02:07:43;;;;;;;1.70;0.77;;;;;;;3.28;85.50;93267.78;4890195;29;20031;-76
2023/11/18 02:10:09;;;;;;;1.25;0.70;;;;;;;3.14;84.80;93273.75;4890264;29;20037;-77
2023/11/18 02:12:50;;;;;;;2.78;0.75;;;;;;;3.10;85.30;93288.53;4890471;29;20032;-78
2023/11/18 02:15:18;;;;;;;1.42;1.00;;;;;;;3.07;84.51;93264.63;4890533;29;20029;-78
2023/11/18 02:17:45;;;;;;;1.58;0.98;;;;;;;3.08;84.95;93259.06;4890202;29;20036;-77
2023/11/18 02:20:21;;;;;;;1.02;0.65;;;;;;;3.10;85.28;93243.00;4889863;29;20175;-78
2023/11/18 02:22:47;;;;;;;1.58;1.10;;;;;;;3.04;85.00;93260.69;4890221;29;20323;-77
2023/11/18 02:25:17;;;;;;;2.47;1.20;;;;;;;2.98;83.31;93272.34;4890187;29;20118;-78
2023/11/18 02:27:45;;;;;;;4.13;1.00;;;;;;;2.98;83.71;93265.22;4889995;29;20048;-77
2023/11/18 02:30:13;;;;;;;1.83;1.00;;;;;;;2.97;83.11;93274.22;4890092;29;20025;-77
2023/11/18 02:33:05;;;;;;;1.90;1.08;;;;;;;2.91;81.65;93242.94;4888752;29;20186;-77
2023/11/18 02:35:37;;;;;;;1.42;1.08;;;;;;;2.94;82.23;93258.19;4889982;29;20096;-78
2023/11/18 02:38:04;;;;;;;2.53;1.20;;;;;;;3.00;82.43;93262.31;4889715;29;20055;-77
2023/11/18 02:40:36;;;;;;;1.63;1.25;;;;;;;2.96;81.21;93256.06;4889851;29;20024;-77
2023/11/18 02:43:05;;;;;;;1.85;1.20;;;;;;;2.87;80.48;93248.00;4888557;29;20025;-77
2023/11/18 02:45:31;;;;;;;1.38;0.98;;;;;;;2.88;79.16;93267.97;4889514;29;20073;-78
2023/11/18 02:47:57;;;;;;;1.80;1.23;;;;;;;2.89;80.08;93256.41;4888567;29;20208;-78
2023/11/18 02:50:27;;;;;;;2.05;1.00;;;;;;;2.89;79.60;93268.75;4889542;29;20024;-77
2023/11/18 02:52:53;;;;;;;1.42;0.90;;;;;;;2.81;78.79;93273.56;4889456;29;20108;-78
2023/11/18 02:55:22;;;;;;;1.83;1.00;;;;;;;2.83;79.48;93283.84;4889495;29;20052;-77
2023/11/18 02:57:49;;;;;;;1.45;0.90;;;;;;;2.85;79.06;93281.72;4889560;29;20114;-77
2023/11/18 03:00:21;;;;;;;2.90;1.25;;;;;;;2.90;79.82;93270.34;4889860;29;20052;-77
2023/11/18 03:02:51;;;;;;;1.77;0.90;;;;;;;2.83;79.37;93283.84;4889424;29;20096;-77
2023/11/18 03:05:20;;;;;;;1.88;1.20;;;;;;;2.78;77.73;93302.28;4889708;29;20287;-78
2023/11/18 03:07:53;;;;;;;2.53;1.20;;;;;;;2.74;77.77;93285.50;4889383;29;20025;-77
2023/11/18 03:10:22;;;;;;;1.25;0.82;;;;;;;2.70;78.12;93293.16;4889200;29;20100;-77
2023/11/18 03:12:53;;;;;;;1.85;1.30;;;;;;;2.68;78.84;93299.75;4889374;29;20044;-77
2023/11/18 03:15:19;;;;;;;1.75;1.27;;;;;;;2.64;78.98;93296.09;4887909;29;20033;-77
2023/11/18 03:17:49;;;;;;;1.67;1.10;;;;;;;2.61;79.02;93311.38;4889297;29;20041;-77
2023/11/18 03:20:22;;;;;;;2.08;1.33;;;;;;;2.52;79.12;93325.41;4888071;29;20069;-78
2023/11/18 03:22:50;;;;;;;2.63;1.25;;;;;;;2.51;79.21;93335.16;4889237;29;20196;-78
2023/11/18 03:25:17;;;;;;;2.38;1.48;;;;;;;2.50;79.68;93346.72;4889219;29;20031;-77
2023/11/18 03:27:44;;;;;;;1.95;1.38;;;;;;;2.49;79.31;93334.63;4889190;29;20025;-78
2023/11/18 03:30:10;;;;;;;2.17;1.40;;;;;;;2.44;79.42;93339.94;4889101;29;20024;-77
2023/11/18 03:32:37;;;;;;;2.33;1.30;;;;;;;2.43;79.02;93330.47;4889105;29;20032;-77
2023/11/18 03:35:07;;;;;;;2.95;1.30;;;;;;;2.37;78.35;93318.44;4887871;29;20021;-77
2023/11/18 03:37:32;;;;;;;2.90;1.70;;;;;;;2.32;79.36;93318.44;4888741;29;20025;-77
2023/11/18 03:39:58;;;;;;;4.07;1.85;;;;;;;2.31;78.78;93322.16;4887504;29;20130;-77
2023/11/18 03:42:23;;;;;;;2.22;1.50;;;;;;;2.26;78.74;93336.13;4887796;29;20052;-77
2023/11/18 03:44:49;;;;;;;2.45;1.33;;;;;;;2.26;78.99;93343.22;4887593;29;20021;-77
2023/11/18 03:47:14;;;;;;;2.55;1.30;;;;;;;2.25;78.63;93352.16;4888851;29;20350;-77
2023/11/18 03:49:40;;;;;;;2.05;1.50;;;;;;;2.17;77.90;93335.91;4888638;29;20021;-77
2023/11/18 03:52:06;;;;;;;2.20;1.40;;;;;;;2.06;78.39;93331.78;4888718;29;20096;-78
2023/11/18 03:54:32;;;;;;;2.08;1.20;;;;;;;2.00;79.06;93314.47;4888407;29;20235;-78
2023/11/18 03:56:57;;;;;;;2.20;1.38;;;;;;;1.95;79.25;93340.78;4888212;29;20211;-78
2023/11/18 03:59:23;;;;;;;3.17;1.63;;;;;;;1.79;78.68;93298.81;4888647;29;20409;-77
2023/11/18 04:01:50;;;;;;;2.63;1.63;;;;;;;1.72;79.15;93334.34;4888674;29;20021;-77
2023/11/18 04:04:16;;;;;;;2.90;1.48;;;;;;;1.68;79.44;93307.03;4888713;29;20016;-78
2023/11/18 04:06:42;;;;;;;3.78;1.77;;;;;;;1.72;79.60;93318.56;4888476;29;20021;-77
2023/11/18 04:09:09;;;;;;;2.90;1.73;;;;;;;1.70;79.59;93318.84;4888424;29;20098;-77
2023/11/18 04:11:35;;;;;;;6.72;1.60;;;;;;;1.71;80.02;93338.81;4888342;29;20025;-78
2023/11/18 04:14:00;;;;;;;3.05;1.75;;;;;;;1.59;78.43;93333.09;4888703;29;20072;-77
2023/11/18 04:16:25;;;;;;;2.55;1.70;;;;;;;1.58;78.57;93347.25;4887240;29;20044;-77
2023/11/18 04:18:51;;;;;;;4.85;1.75;;;;;;;1.53;77.79;93331.53;4888348;29;20033;-78
2023/11/18 04:21:16;;;;;;;3.35;1.80;;;;;;;1.53;79.11;93344.66;4888610;29;20323;-78
2023/11/18 04:23:42;;;;;;;2.13;1.55;;;;;;;1.50;77.82;93358.31;4888433;29;20374;-78
2023/11/18 04:26:08;;;;;;;2.60;1.60;;;;;;;1.44;78.64;93330.50;4888416;29;20052;-77
2023/11/18 04:28:34;;;;;;;2.75;1.52;;;;;;;1.47;77.88;93362.28;4888600;29;20021;-77
2023/11/18 04:31:00;;;;;;;3.10;1.75;;;;;;;1.46;78.95;93352.81;4888398;29;20257;-78
2023/11/18 04:33:26;;;;;;;3.38;1.70;;;;;;;1.48;78.90;93363.06;4888270;29;20056;-78
2023/11/18 04:35:52;;;;;;;2.38;1.50;;;;;;;1.49;78.55;93327.88;4887128;29;20204;-78
2023/11/18 04:38:19;;;;;;;7.95;2.45;;;;;;;1.48;78.54;93381.44;4888292;29;20051;-78
2023/11/18 04:40:45;;;;;;;2.75;1.70;;;;;;;1.44;78.69;93367.28;4888298;29;20032;-77
2023/11/18 04:43:12;;;;;;;4.75;1.58;;;;;;;1.38;77.93;93362.06;4888114;29;20089;-78
2023/11/18 04:45:38;;;;;;;2.03;1.55;;;;;;;1.33;78.12;93369.94;4888290;29;20032;-77
2023/11/18 04:48:04;;;;;;;2.55;1.52;;;;;;;1.38;78.75;93348.94;4888011;29;20017;-77
2023/11/18 04:50:31;;;;;;;2.90;1.42;;;;;;;1.31;78.35;93366.78;4888075;29;20032;-78
2023/11/18 04:52:57;;;;;;;3.40;1.67;;;;;;;1.34;78.82;93360.22;4888100;29;20048;-78
2023/11/18 04:55:22;;;;;;;2.10;1.40;;;;;;;1.31;78.31;93360.75;4888184;29;20092;-78
2023/11/18 04:57:48;;;;;;;1.73;1.20;;;;;;;1.34;77.78;93366.28;4888297;29;20021;-78
2023/11/18 05:00:16;;;;;;;3.10;1.58;;;;;;;1.34;77.62;93363.66;4888279;29;20021;-77
2023/11/18 05:02:42;;;;;;;2.90;1.40;;;;;;;1.31;77.22;93369.41;4887994;29;20101;-77
2023/11/18 05:05:09;;;;;;;3.17;1.50;;;;;;;1.31;77.36;93393.03;4888003;29;20036;-78
2023/11/18 05:07:35;;;;;;;1.63;1.08;;;;;;;1.25;77.09;93361.81;4888057;29;20372;-78
2023/11/18 05:10:01;;;;;;;2.78;1.30;;;;;;;1.31;77.36;93348.41;4890652;29;20021;-77
2023/11/18 05:12:29;;;;;;;2.28;1.45;;;;;;;1.28;76.82;93335.81;4891490;29;20025;-77
2023/11/18 05:14:55;;;;;;;1.80;1.15;;;;;;;1.30;77.49;93338.94;4891323;29;20049;-77
2023/11/18 05:17:21;;;;;;;2.03;1.20;;;;;;;1.31;76.94;93345.00;4891211;29;20045;-78
2023/11/18 05:19:47;;;;;;;2.53;1.38;;;;;;;1.34;76.90;93310.31;4891494;29;20021;-78
2023/11/18 05:22:12;;;;;;;2.40;1.20;;;;;;;1.31;76.23;93340.53;4891190;29;20044;-77
2023/11/18 05:24:38;;;;;;;2.20;1.27;;;;;;;1.36;77.02;93360.72;4890989;29;20378;-77
2023/11/18 05:27:03;;;;;;;2.45;1.27;;;;;;;1.38;77.10;93340.25;4889922;29;20028;-78
2023/11/18 05:29:29;;;;;;;1.95;1.20;;;;;;;1.35;76.25;93340.78;4891041;29;20040;-78
2023/11/18 05:31:55;;;;;;;2.20;1.30;;;;;;;1.42;76.83;93351.00;4890933;29;20088;-77
2023/11/18 05:34:23;;;;;;;2.70;1.70;;;;;;;1.45;76.90;93337.34;4891047;29;20032;-78
2023/11/18 05:36:54;;;;;;;1.50;0.98;;;;;;;1.38;75.38;93353.38;4890993;29;20020;-78
2023/11/18 05:39:24;;;;;;;1.77;1.08;;;;;;;1.40;75.48;93323.19;4890586;29;20208;-77
2023/11/18 05:41:50;;;;;;;2.45;1.30;;;;;;;1.40;75.55;93336.31;4890959;29;20025;-78
2023/11/18 05:44:19;;;;;;;1.80;0.98;;;;;;;1.37;74.47;93336.84;4890780;29;20025;-77
2023/11/18 05:46:51;;;;;;;1.48;0.93;;;;;;;1.38;75.10;93320.03;4890775;29;20227;-77
2023/11/18 05:49:17;;;;;;;2.50;1.25;;;;;;;1.43;74.96;93326.31;4890832;29;20085;-77
2023/11/18 05:51:43;;;;;;;1.90;0.80;;;;;;;1.47;74.50;93320.25;4890690;29;20096;-77
2023/11/18 05:54:10;;;;;;;2.80;1.13;;;;;;;1.52;74.80;93330.72;4890396;29;20385;-77
2023/11/18 05:56:36;;;;;;;1.67;0.77;;;;;;;1.48;73.61;93334.16;4890564;29;20025;-77
2023/11/18 05:59:02;;;;;;;1.50;0.90;;;;;;;1.50;74.59;93332.84;4890383;29;20032;-77
2023/11/18 06:01:28;;;;;;;1.73;1.02;;;;;;;1.50;73.61;93332.06;4890579;29;20100;-77
2023/11/18 06:03:53;;;;;;;1.60;0.80;;;;;;;1.54;74.43;93343.59;4890293;29;20331;-77
2023/11/18 06:06:21;;;;;;;1.20;0.88;;;;;;;1.54;73.99;93341.75;4890351;29;20238;-77
2023/11/18 06:08:47;;;;;;;1.20;0.80;;;;;;;1.47;73.80;93338.66;4890439;29;20025;-77
2023/11/18 06:11:14;;;;;;;1.33;0.77;;;;;;;1.52;73.14;93343.09;4890354;29;20053;-77
2023/11/18 06:13:42;;;;;;;1.67;0.75;;;;;;;1.47;74.02;93337.88;4888929;29;20043;-77
2023/11/18 06:16:28;;;;;;;1.55;0.88;;;;;;;1.46;74.71;93357.28;4890275;29;20064;-77
2023/11/18 06:18:55;;;;;;;1.15;0.68;;;;;;;1.43;75.40;93366.50;4888250;29;20261;-77
2023/11/18 06:21:28;;;;;;;1.10;0.50;;;;;;;1.28;76.46;93362.06;4889013;29;20025;-78
2023/11/18 06:23:54;;;;;;;1.17;0.55;;;;;;;1.20;76.76;93362.59;4890113;29;20220;-77
2023/11/18 06:26:21;;;;;;;1.23;0.70;;;;;;;1.22;76.95;93360.50;4889895;29;20319;-77
2023/11/18 06:28:51;;;;;;;4.20;1.02;;;;;;;1.25;77.26;93338.97;4889974;29;20029;-76
2023/11/18 06:31:17;;;;;;;2.58;1.20;;;;;;;1.30;76.16;93332.91;4890118;29;20036;-77
2023/11/18 06:33:44;;;;;;;3.60;1.05;;;;;;;1.36;76.03;93344.97;4889867;29;20029;-76
2023/11/18 06:36:20;;;;;;;1.05;0.70;;;;;;;1.34;75.21;93347.09;4889766;29;20056;-77
2023/11/18 06:38:49;;;;;;;1.00;0.60;;;;;;;1.39;75.98;93311.09;4889748;29;20070;-76
2023/11/18 06:41:16;;;;;;;1.33;0.45;;;;;;;1.40;75.24;93357.31;4889600;29;20029;-77
2023/11/18 06:44:18;;;;;;;2.25;0.77;;;;;;;1.42;75.50;93324.75;4889804;29;20033;-77
2023/11/18 06:46:36;;;;;;;0.95;0.60;;;;;;;1.50;74.55;93329.44;4886828;29;20044;-77
2023/11/18 06:49:04;;;;;;;1.30;0.70;;;;;;;1.54;74.18;93346.22;4889480;29;20041;-77
2023/11/18 06:51:31;;;;;;;1.23;0.45;;;;;;;1.58;73.60;93350.66;4889505;29;20036;-78
2023/11/18 06:53:57;;;;;;;1.88;0.60;;;;;;;1.63;72.00;93349.88;4889485;29;20049;-78
2023/11/18 06:56:27;;;;;;;0.32;0.30;;;;;;;1.67;72.72;93353.53;4889569;29;20081;-77
2023/11/18 06:58:53;;;;;;;2.15;0.57;;;;;;;1.76;71.90;93366.88;4889368;29;20059;-77
2023/11/18 07:01:19;;;;;;;1.33;0.52;;;;;;;1.83;72.16;93390.25;4888179;29;20096;-77
2023/11/18 07:03:52;;;;;;;2.30;0.57;;;;;;;1.90;72.24;93364.47;4889465;29;20036;-77
2023/11/18 07:06:22;;;;;;;1.00;0.70;;;;;;;1.89;71.59;93362.88;4889194;29;20025;-77
2023/11/18 07:08:51;;;;;;;0.65;0.40;;;;;;;1.96;71.79;93347.63;4889427;29;20032;-77
2023/11/18 07:11:17;;;;;;;0.40;0.35;;;;;;;1.92;70.27;93349.22;4888155;29;20033;-77
2023/11/18 07:13:43;;;;;;;0.45;0.40;;;;;;;1.83;69.56;93372.63;4889035;29;20028;-78
2023/11/18 07:16:09;;;;;;;3.45;0.47;;;;;;;1.79;70.32;93380.28;4889150;29;20053;-77
2023/11/18 07:18:36;;;;;;;0.82;0.52;;;;;;;1.82;71.29;93370.28;4888973;29;20029;-77
2023/11/18 07:21:04;;;;;;;1.25;0.50;;;;;;;1.85;71.43;93377.63;4889010;29;20029;-77
2023/11/18 07:23:30;;;;;;;2.25;0.63;;;;;;;1.79;71.65;93359.25;4889140;29;20025;-77
2023/11/18 07:25:56;;;;;;;0.82;0.40;;;;;;;1.74;71.18;93364.53;4889209;29;20025;-77
2023/11/18 07:28:22;;;;;;;0.73;0.50;;;;;;;1.73;71.50;93370.84;4887780;29;20337;-76
2023/11/18 07:30:47;;;;;;;1.10;0.50;;;;;;;1.68;71.98;93362.97;4888243;29;20055;-77
2023/11/18 07:33:14;;;;;;;1.02;0.60;;;;;;;1.63;72.45;93377.97;4889117;29;20021;-77
2023/11/18 07:35:40;;;;;;;0.40;0.38;;;;;;;1.62;73.20;93379.81;4888965;29;20025;-76
2023/11/18 07:38:07;;;;;;;0.40;0.40;;;;;;;1.57;73.15;93411.38;4888838;29;20346;-77
2023/11/18 07:40:33;;;;;;;0.75;0.50;;;;;;;1.54;73.86;93380.38;4888759;29;20029;-76
2023/11/18 07:43:01;;;;;;;1.70;0.90;;;;;;;1.59;74.77;93389.03;4888771;29;20025;-76
2023/11/18 07:45:28;;;;;;;1.80;0.50;;;;;;;1.58;73.36;93397.94;4888662;29;20029;-76
2023/11/18 07:47:54;;;;;;;0.80;0.50;;;;;;;1.50;73.74;93408.22;4888658;29;20342;-76
2023/11/18 07:50:21;;;;;;;2.40;0.50;;;;;;;1.46;74.35;93370.41;4888659;29;20025;-77
2023/11/18 07:52:50;;;;;;;0.70;0.40;;;;;;;1.42;74.39;93385.91;4888853;29;20236;-78
2023/11/18 07:55:16;;;;;;;0.70;0.50;;;;;;;1.42;75.13;93383.28;4888954;29;20044;-77
2023/11/18 07:57:42;;;;;;;1.10;0.52;;;;;;;1.44;74.77;93391.69;4888598;29;20047;-78
2023/11/18 08:00:11;;;;;;;0.95;0.55;;;;;;;1.38;74.98;93383.06;4888475;29;20033;-78
2023/11/18 08:02:38;;;;;;;1.27;0.60;;;;;;;1.34;74.98;93402.22;4888680;29;20033;-77
2023/11/18 08:05:07;;;;;;;3.90;0.65;;;;;;;1.38;75.42;93388.31;4888754;29;20033;-77
2023/11/18 08:07:36;;;;;;;3.50;0.70;;;;;;;1.38;74.95;93409.31;4888565;29;20025;-77
2023/11/18 08:10:05;;;;;;;1.65;0.65;;;;;;;1.37;75.17;93397.22;4888813;29;20033;-77
2023/11/18 08:12:34;;;;;;;0.82;0.50;;;;;;;1.48;75.29;93387.47;4887414;29;20033;-77
2023/11/18 08:15:00;;;;;;;1.05;0.55;;;;;;;1.41;73.95;93418.50;4888785;29;20033;-78
2023/11/18 08:17:26;;;;;;;1.50;0.77;;;;;;;1.44;74.20;93428.47;4888553;29;20033;-77
2023/11/18 08:19:52;;;;;;;3.53;0.47;;;;;;;1.43;73.63;93400.63;4888310;29;20024;-78
2023/11/18 08:22:19;;;;;;;0.52;0.32;;;;;;;1.44;73.81;93394.31;4888692;29;20021;-78
2023/11/18 08:24:48;;;;;;;2.38;0.68;;;;;;;1.47;73.84;93401.69;4888825;29;20212;-78
2023/11/18 08:27:14;;;;;;;1.15;0.60;;;;;;;1.49;73.70;93390.91;4888570;29;20052;-78
2023/11/18 08:29:39;;;;;;;2.35;0.88;;;;;;;1.58;74.01;93428.69;4887412;29;20079;-78
2023/11/18 08:32:06;;;;;;;1.08;0.60;;;;;;;1.59;74.53;93388.25;4888369;29;20035;-78
2023/11/18 08:34:33;;;;;;;1.25;0.80;;;;;;;1.58;74.38;93412.94;4888274;29;20057;-77
2023/11/18 08:36:59;;;;;;;0.38;0.38;;;;;;;1.57;72.80;93403.50;4888354;29;20390;-78
2023/11/18 08:39:26;;;;;;;1.23;0.75;;;;;;;1.57;71.87;93416.63;4888490;29;20033;-78
2023/11/18 08:41:51;;;;;;;1.05;0.70;;;;;;;1.64;72.69;93401.34;4888313;29;20231;-77
2023/11/18 08:44:17;;;;;;;3.05;0.50;;;;;;;1.68;73.15;93410.28;4891890;29;20033;-78
2023/11/18 08:46:43;;;;;;;1.02;0.40;;;;;;;1.63;72.30;93406.88;4891628;29;20094;-77
2023/11/18 08:49:11;;;;;;;0.57;0.43;;;;;;;1.59;72.87;93430.28;4891930;29;20226;-78
2023/11/18 08:51:38;;;;;;;1.08;0.60;;;;;;;1.44;72.89;93420.56;4891918;29;20032;-78
2023/11/18 08:54:22;;;;;;;0.50;0.50;;;;;;;1.41;73.09;93426.38;4891375;29;20048;-76
2023/11/18 08:56:54;;;;;;;1.60;0.70;;;;;;;1.43;74.15;93429.53;4891736;29;20020;-77
2023/11/18 08:59:27;;;;;;;1.45;0.68;;;;;;;1.43;74.13;93418.25;4891658;29;20037;-77
2023/11/18 09:01:59;;;;;;;0.70;0.50;;;;;;;1.39;73.04;93416.13;4891670;29;20028;-78
2023/11/18 09:04:27;;;;;;;1.13;0.50;;;;;;;1.38;73.08;93419.81;4891701;29;20021;-78
2023/11/18 09:06:53;;;;;;;0.57;0.47;;;;;;;1.37;72.11;93386.72;4891402;29;20021;-79
2023/11/18 09:09:29;;;;;;;1.55;0.75;;;;;;;1.32;72.65;93397.25;4891541;29;20070;-79
2023/11/18 09:11:57;;;;;;;2.03;0.60;;;;;;;1.33;73.52;93411.94;4891407;29;20028;-79
2023/11/18 09:14:26;;;;;;;1.90;0.80;;;;;;;1.32;73.44;93407.75;4891329;29;20342;-78
2023/11/18 09:16:55;;;;;;;0.82;0.50;;;;;;;1.31;73.57;93403.56;4890140;29;20124;-78
2023/11/18 09:19:21;;;;;;;1.52;0.80;;;;;;;1.35;73.36;93409.84;4891135;29;20021;-78
2023/11/18 09:21:47;;;;;;;2.65;0.63;;;;;;;1.42;73.97;93414.03;4891460;29;20025;-79
2023/11/18 09:24:13;;;;;;;1.48;0.63;;;;;;;1.48;73.21;93421.63;4891160;29;20025;-78
2023/11/18 09:26:40;;;;;;;1.15;0.60;;;;;;;1.46;73.12;93415.06;4891187;29;20096;-78
2023/11/18 09:29:08;;;;;;;2.20;0.73;;;;;;;1.46;72.75;93407.19;4891355;29;20069;-80
2023/11/18 09:31:37;;;;;;;1.20;0.50;;;;;;;1.54;72.45;93451.28;4890829;29;20025;-79
2023/11/18 09:34:06;;;;;;;1.23;0.70;;;;;;;1.54;71.87;93406.63;4890791;29;20044;-78
2023/11/18 09:36:33;;;;;;;0.93;0.60;;;;;;;1.44;71.94;93438.19;4890907;29;20037;-79
2023/11/18 09:38:59;;;;;;;0.68;0.47;;;;;;;1.41;72.43;93405.38;4890721;29;20036;-78
2023/11/18 09:41:26;;;;;;;1.45;0.63;;;;;;;1.46;72.66;93404.56;4890794;29;20054;-78
2023/11/18 09:43:56;;;;;;;0.57;0.57;;;;;;;1.51;72.74;93420.31;4890513;29;20043;-78
2023/11/18 09:46:35;;;;;;;1.33;0.57;;;;;;;1.52;72.17;93429.75;4889632;29;20063;-78
2023/11/18 09:49:19;;;;;;;1.77;0.60;;;;;;;1.47;71.70;93417.44;4890578;29;20028;-78
2023/11/18 09:51:48;;;;;;;0.50;0.50;;;;;;;1.46;71.95;93410.59;4890590;29;20029;-79
2023/11/18 09:54:18;;;;;;;0.77;0.60;;;;;;;1.48;72.60;93421.63;4889809;29;20076;-78
2023/11/18 09:57:08;;;;;;;0.45;0.40;;;;;;;1.50;71.70;93437.91;4889247;29;20024;-78
2023/11/18 09:59:44;;;;;;;0.57;0.50;;;;;;;1.47;71.56;93438.44;4889253;29;20029;-78
2023/11/18 10:02:10;;;;;;;0.75;0.50;;;;;;;1.45;71.73;93440.56;4890387;29;20029;-79
2023/11/18 10:04:39;;;;;;;3.20;0.65;;;;;;;1.46;71.44;93405.34;4890303;29;20161;-78
2023/11/18 10:07:07;;;;;;;3.35;0.93;;;;;;;1.47;71.49;93401.69;4890359;29;20029;-78
2023/11/18 10:09:38;;;;;;;1.23;0.70;;;;;;;1.45;70.99;93395.13;4890187;29;20025;-77
2023/11/18 10:12:07;;;;;;;4.03;0.67;;;;;;;1.45;70.90;93418.75;4890113;29;20323;-78
2023/11/18 10:14:36;;;;;;;1.05;0.80;;;;;;;1.48;71.24;93402.47;4889166;29;20025;-78
2023/11/18 10:17:08;;;;;;;1.48;0.70;;;;;;;1.50;70.83;93397.72;4888848;29;20349;-79
2023/11/18 10:20:12;;;;;;;0.30;0.30;;;;;;;1.51;70.88;93402.72;4890199;29;20036;-78
2023/11/18 10:22:38;;;;;;;2.15;0.80;;;;;;;1.55;70.52;93410.84;4890089;29;20053;-78
2023/11/18 10:25:06;;;;;;;1.17;0.60;;;;;;;1.59;70.53;93404.00;4890221;29;20035;-77
2023/11/18 10:27:31;;;;;;;1.27;0.60;;;;;;;1.68;69.89;93420.78;4889986;29;20065;-77
2023/11/18 10:30:04;;;;;;;1.10;0.63;;;;;;;1.59;69.04;93456.56;4890054;29;20029;-78
2023/11/18 10:32:35;;;;;;;1.92;0.60;;;;;;;1.59;69.37;93409.25;4888851;29;20223;-78
2023/11/18 10:35:01;;;;;;;0.55;0.45;;;;;;;1.61;69.21;93396.66;4890024;29;20432;-77
2023/11/18 10:37:30;;;;;;;0.60;0.47;;;;;;;1.60;68.83;93426.59;4889851;29;20024;-78
2023/11/18 10:39:57;;;;;;;1.30;0.60;;;;;;;1.63;69.32;93414.75;4889733;29;20353;-77
2023/11/18 10:42:30;;;;;;;1.95;1.10;;;;;;;1.65;69.68;93442.34;4889848;29;20032;-77
2023/11/18 10:44:58;;;;;;;1.55;0.68;;;;;;;1.71;69.64;93396.59;4889868;29;20017;-77
2023/11/18 10:47:26;;;;;;;1.02;0.85;;;;;;;1.64;68.44;93453.91;4889830;29;20074;-77
2023/11/18 10:49:53;;;;;;;1.17;0.50;;;;;;;1.55;68.68;93416.09;4889635;29;20323;-77
2023/11/18 10:52:19;;;;;;;0.70;0.40;;;;;;;1.56;68.59;93407.16;4888545;29;20100;-78
2023/11/18 10:54:55;;;;;;;2.17;0.90;;;;;;;1.59;68.88;93422.41;4888499;29;20064;-78
2023/11/18 10:57:24;;;;;;;1.77;0.98;;;;;;;1.64;68.62;93397.94;4889525;29;20157;-77
2023/11/18 11:00:12;;;;;;;3.10;1.02;;;;;;;1.66;68.82;93395.84;4889474;29;20084;-77
2023/11/18 11:02:41;;;;;;;0.95;0.50;;;;;;;1.64;68.64;93395.31;4889258;29;20508;-77
2023/11/18 11:05:15;;;;;;;1.10;0.70;;;;;;;1.66;68.66;93386.09;4889368;29;20164;-77
2023/11/18 11:07:45;;;;;;;1.10;0.40;;;;;;;1.65;68.82;93397.69;4888091;29;20036;-77
2023/11/18 11:10:10;;;;;;;1.52;0.50;;;;;;;1.66;68.36;93458.88;4888980;29;20025;-79
2023/11/18 11:12:51;;;;;;;0.85;0.50;;;;;;;1.65;68.13;93387.19;4889172;29;20081;-78
2023/11/18 11:15:29;;;;;;;2.25;0.63;;;;;;;1.68;68.61;93386.63;4889341;29;20132;-78
2023/11/18 11:18:08;;;;;;;1.08;0.75;;;;;;;1.70;68.58;93389.78;4888984;29;20227;-77
2023/11/18 11:20:42;;;;;;;2.67;0.90;;;;;;;1.66;68.05;93407.13;4889151;29;20219;-78
2023/11/18 11:23:22;;;;;;;1.13;0.70;;;;;;;1.74;68.80;93426.81;4889015;29;20227;-78
2023/11/18 11:26:00;;;;;;;1.98;0.95;;;;;;;1.75;68.90;93388.94;4888984;29;20323;-78
2023/11/18 11:28:33;;;;;;;2.13;1.20;;;;;;;1.72;68.57;93385.03;4889033;29;20089;-79
2023/11/18 11:31:21;;;;;;;1.48;0.50;;;;;;;1.67;68.58;93400.84;4888968;29;20021;-79
2023/11/18 11:33:59;;;;;;;0.82;0.50;;;;;;;1.63;67.88;93399.78;4889046;29;20025;-77
2023/11/18 11:36:36;;;;;;;2.38;0.73;;;;;;;1.65;68.44;93360.91;4888752;29;20096;-77
2023/11/18 11:39:03;;;;;;;1.88;0.90;;;;;;;1.68;68.23;93368.22;4888709;29;20076;-77
2023/11/18 11:41:34;;;;;;;2.10;0.85;;;;;;;1.67;68.66;93379.81;4888706;29;20025;-78
2023/11/18 11:44:00;;;;;;;1.00;0.73;;;;;;;1.66;68.80;93391.34;4888756;29;20091;-77
2023/11/18 11:46:34;;;;;;;1.90;0.88;;;;;;;1.54;68.26;93389.03;4887737;29;20110;-79